createdAt,value
2023-02-24T00:02:50.973Z,5.25
2023-02-24T00:07:54.077Z,4.80
2023-02-24T00:12:57.999Z,4.75
2023-02-24T00:18:07.126Z,3.28
2023-02-24T00:23:10.817Z,4.60
2023-02-24T00:28:15.067Z,4.43
2023-02-24T00:33:22.420Z,5.35
2023-02-24T00:38:26.182Z,2.33
2023-02-24T00:43:30.802Z,5.13
2023-02-24T00:48:35.279Z,5.72
2023-02-24T00:53:39.421Z,4.68
2023-02-24T01:03:48.058Z,4.28
2023-02-24T01:08:52.107Z,3.90
2023-02-24T01:13:54.765Z,4.13
2023-02-24T01:18:59.489Z,4.15
2023-02-24T01:24:02.290Z,3.92
2023-02-24T01:29:05.121Z,4.03
2023-02-24T01:34:10.818Z,4.80
2023-02-24T01:39:14.408Z,3.10
2023-02-24T01:44:35.843Z,3.65
2023-02-24T01:49:42.081Z,2.88
2023-02-24T01:54:47.401Z,3.97
2023-02-24T01:59:50.743Z,3.75
2023-02-24T02:10:00.213Z,4.25
2023-02-24T02:15:03.581Z,3.97
2023-02-24T02:20:31.190Z,4.97
2023-02-24T02:25:40.441Z,4.32
2023-02-24T02:31:02.062Z,2.97
2023-02-24T02:36:13.106Z,4.35
2023-02-24T02:41:19.904Z,5.00
2023-02-24T02:46:34.931Z,4.47
2023-02-24T02:51:41.749Z,1.17
2023-02-24T02:56:47.939Z,2.67
2023-02-24T03:01:55.547Z,4.00
2023-02-24T03:07:02.944Z,2.35
2023-02-24T03:12:17.490Z,2.22
2023-02-24T03:17:31.679Z,3.47
2023-02-24T03:27:42.818Z,3.03
2023-02-24T03:32:56.138Z,3.50
2023-02-24T03:38:00.115Z,3.88
2023-02-24T03:43:09.237Z,3.38
2023-02-24T03:48:13.185Z,4.20
2023-02-24T03:53:36.161Z,4.03
2023-02-24T03:58:46.993Z,1.73
2023-02-24T04:03:52.956Z,2.58
2023-02-24T04:09:01.485Z,2.85
2023-02-24T04:14:07.680Z,3.67
2023-02-24T04:19:14.157Z,3.25
2023-02-24T04:24:18.562Z,2.53
2023-02-24T04:29:27.480Z,3.03
2023-02-24T04:34:32.544Z,1.25
2023-02-24T04:39:38.476Z,3.05
2023-02-24T04:44:42.956Z,2.53
2023-02-24T04:49:45.555Z,2.55
2023-02-24T04:54:49.070Z,2.30
2023-02-24T04:59:54.134Z,1.55
2023-02-24T05:10:00.023Z,3.00
2023-02-24T05:15:06.125Z,1.45
2023-02-24T05:20:27.329Z,2.20
2023-02-24T05:25:30.108Z,1.88
2023-02-24T05:30:37.575Z,2.40
2023-02-24T05:35:40.838Z,2.45
2023-02-24T05:40:46.494Z,3.70
2023-02-24T05:45:50.892Z,2.88
2023-02-24T05:50:59.610Z,2.30
2023-02-24T05:56:02.445Z,1.55
2023-02-24T06:01:16.290Z,3.05
2023-02-24T06:06:19.012Z,2.95
2023-02-24T06:11:22.219Z,3.53
2023-02-24T06:16:27.152Z,3.20
2023-02-24T06:21:30.116Z,3.50
2023-02-24T06:26:33.807Z,3.75
2023-02-24T06:31:37.957Z,2.17
2023-02-24T06:36:43.021Z,2.75
2023-02-24T06:41:46.774Z,0.90
2023-02-24T06:46:50.758Z,2.80
2023-02-24T06:51:54.675Z,2.63
2023-02-24T06:56:57.727Z,3.83
2023-02-24T07:02:03.432Z,3.55
2023-02-24T07:07:06.870Z,2.95
2023-02-24T07:12:11.360Z,3.50
2023-02-24T07:22:25.129Z,2.42
2023-02-24T07:27:28.146Z,4.32
2023-02-24T07:32:30.869Z,3.80
2023-02-24T07:37:35.654Z,3.60
2023-02-24T07:42:39.113Z,2.38
2023-02-24T07:47:42.618Z,4.15
2023-02-24T07:52:49.027Z,2.90
2023-02-24T07:57:51.726Z,4.63
2023-02-24T08:02:56.061Z,5.18
2023-02-24T08:08:00.061Z,3.47
2023-02-24T08:13:03.678Z,4.40
2023-02-24T08:18:06.210Z,5.15
2023-02-24T08:23:11.129Z,4.65
2023-02-24T08:28:17.338Z,3.22
2023-02-24T08:33:21.923Z,5.47
2023-02-24T08:38:28.661Z,3.47
2023-02-24T08:43:34.707Z,3.35
2023-02-24T08:48:38.386Z,3.17
2023-02-24T08:53:43.129Z,3.45
2023-02-24T08:58:47.879Z,5.00
2023-02-24T09:03:51.348Z,2.08
2023-02-24T09:09:17.167Z,3.88
2023-02-24T09:14:27.053Z,5.18
2023-02-24T09:20:01.739Z,2.92
2023-02-24T09:25:18.716Z,5.40
2023-02-24T09:30:37.499Z,5.97
2023-02-24T09:35:42.162Z,5.53
2023-02-24T09:40:50.231Z,6.65
2023-02-24T09:45:59.619Z,6.68
2023-02-24T09:51:05.152Z,5.60
2023-02-24T09:56:16.078Z,7.80
2023-02-24T10:01:31.113Z,9.13
2023-02-24T10:06:38.567Z,9.57
2023-02-24T10:11:53.487Z,5.43
2023-02-24T10:17:22.603Z,9.30
2023-02-24T10:22:30.554Z,9.45
2023-02-24T10:27:39.486Z,8.98
2023-02-24T10:32:47.021Z,10.00
2023-02-24T10:37:50.234Z,9.23
2023-02-24T10:43:10.426Z,8.57
2023-02-24T10:48:40.164Z,8.68
2023-02-24T10:53:53.075Z,8.43
2023-02-24T10:59:22.145Z,8.00
2023-02-24T11:04:54.283Z,8.57
2023-02-24T11:10:11.373Z,7.20
2023-02-24T11:15:51.929Z,7.78
2023-02-24T11:20:56.319Z,7.68
2023-02-24T11:26:00.840Z,7.82
2023-02-24T11:31:10.160Z,6.25
2023-02-24T11:36:20.668Z,6.85
2023-02-24T11:41:26.826Z,4.95
2023-02-24T11:46:35.788Z,6.50
2023-02-24T11:51:38.734Z,6.05
2023-02-24T11:56:44.188Z,7.10
2023-02-24T12:01:51.810Z,6.32
2023-02-24T12:06:58.191Z,8.25
2023-02-24T12:12:02.582Z,7.65
2023-02-24T12:17:14.031Z,8.15
2023-02-24T12:22:16.970Z,7.60
2023-02-24T12:27:26.446Z,7.63
2023-02-24T12:32:34.625Z,7.97
2023-02-24T12:37:50.600Z,8.27
2023-02-24T12:42:57.379Z,7.97
2023-02-24T12:48:06.712Z,7.00
2023-02-24T12:53:13.622Z,6.45
2023-02-24T12:58:20.065Z,6.32
2023-02-24T13:03:30.210Z,6.47
2023-02-24T13:08:38.334Z,6.13
2023-02-24T13:13:50.489Z,6.43
2023-02-24T13:19:04.778Z,5.93
2023-02-24T13:24:07.487Z,7.05
2023-02-24T13:29:11.238Z,6.78
2023-02-24T13:34:16.939Z,7.13
2023-02-24T13:39:24.338Z,6.53
2023-02-24T13:44:28.369Z,7.53
2023-02-24T13:49:37.734Z,4.68
2023-02-24T13:54:49.265Z,4.47
2023-02-24T14:00:01.586Z,6.85
2023-02-24T14:05:10.089Z,7.18
2023-02-24T14:10:18.975Z,7.93
2023-02-24T14:15:28.620Z,6.10
2023-02-24T14:20:34.103Z,5.65
2023-02-24T14:25:47.051Z,5.72
2023-02-24T14:30:53.091Z,7.60
2023-02-24T14:35:58.338Z,7.47
2023-02-24T14:41:01.418Z,8.75
2023-02-24T14:46:10.156Z,6.80
2023-02-24T14:51:20.483Z,4.70
2023-02-24T14:56:25.269Z,8.10
2023-02-24T15:01:31.520Z,7.30
2023-02-24T15:06:40.961Z,4.65
2023-02-24T15:11:43.757Z,7.68
2023-02-24T15:16:48.397Z,7.65
2023-02-24T15:21:52.359Z,7.43
2023-02-24T15:26:56.891Z,6.55
2023-02-24T15:32:00.794Z,4.53
2023-02-24T15:37:13.928Z,5.88
2023-02-24T15:42:21.669Z,3.97
2023-02-24T15:47:25.297Z,5.45
2023-02-24T15:52:30.646Z,6.53
2023-02-24T15:57:35.667Z,4.78
2023-02-24T16:02:38.371Z,5.15
2023-02-24T16:07:44.456Z,7.38
2023-02-24T16:12:50.126Z,3.55
2023-02-24T16:17:54.024Z,5.88
2023-02-24T16:22:58.680Z,6.65
2023-02-24T16:28:01.963Z,5.85
2023-02-24T16:33:05.589Z,7.05
2023-02-24T16:38:15.156Z,5.43
2023-02-24T16:43:17.875Z,5.35
2023-02-24T16:48:21.917Z,6.60
2023-02-24T16:53:26.081Z,5.60
2023-02-24T16:58:29.762Z,5.50
2023-02-24T17:03:34.993Z,2.58
2023-02-24T17:08:41.466Z,3.13
2023-02-24T17:13:53.874Z,3.83
2023-02-24T17:18:57.281Z,5.43
2023-02-24T17:24:01.208Z,4.47
2023-02-24T17:29:04.428Z,4.88
2023-02-24T17:34:07.111Z,3.60
2023-02-24T17:39:11.297Z,4.32
2023-02-24T17:44:14.164Z,2.75
2023-02-24T17:49:16.736Z,2.92
2023-02-24T17:54:21.613Z,2.80
2023-02-24T17:59:24.279Z,2.05
2023-02-24T18:04:26.752Z,1.80
2023-02-24T18:09:30.642Z,1.65
2023-02-24T18:14:33.481Z,2.25
2023-02-24T18:19:36.117Z,2.58
2023-02-24T18:24:40.261Z,2.03
2023-02-24T18:34:45.416Z,2.45
2023-02-24T18:39:50.682Z,1.38
2023-02-24T18:44:53.543Z,3.40
2023-02-24T18:49:56.894Z,2.05
2023-02-24T19:00:23.439Z,2.38
2023-02-24T19:05:48.361Z,2.55
2023-02-24T19:10:55.282Z,4.20
2023-02-24T19:16:12.299Z,3.67
2023-02-24T19:21:25.613Z,3.65
2023-02-24T19:26:30.975Z,2.90
2023-02-24T19:31:58.493Z,3.60
2023-02-24T19:37:20.308Z,4.00
2023-02-24T19:42:46.284Z,3.58
2023-02-24T19:48:20.218Z,3.65
2023-02-24T19:53:56.230Z,2.47
2023-02-24T19:59:17.163Z,4.03
2023-02-24T20:04:27.197Z,3.50
2023-02-24T20:09:42.137Z,4.03
2023-02-24T20:14:57.060Z,3.95
2023-02-24T20:20:26.845Z,4.00
2023-02-24T20:25:45.629Z,4.28
2023-02-24T20:30:51.397Z,4.78
2023-02-24T20:36:06.679Z,5.07
2023-02-24T20:41:18.601Z,6.15
2023-02-24T20:46:26.558Z,6.30
2023-02-24T20:51:34.514Z,6.32
2023-02-24T20:57:04.714Z,6.13
2023-02-24T21:02:14.499Z,6.00
2023-02-24T21:07:21.967Z,5.38
2023-02-24T21:12:35.886Z,5.22
2023-02-24T21:17:40.299Z,3.83
2023-02-24T21:22:51.200Z,3.03
2023-02-24T21:27:57.210Z,2.70
2023-02-24T21:33:01.032Z,2.33
2023-02-24T21:38:10.103Z,2.53
2023-02-24T21:43:22.282Z,2.70
2023-02-24T21:48:31.749Z,3.10
2023-02-24T21:53:39.917Z,2.55
2023-02-24T21:58:49.967Z,3.08
2023-02-24T22:03:55.035Z,3.63
2023-02-24T22:09:10.572Z,3.03
2023-02-24T22:14:25.312Z,3.97
2023-02-24T22:19:33.767Z,2.47
2023-02-24T22:24:43.041Z,4.70
2023-02-24T22:29:57.769Z,3.40
2023-02-24T22:35:07.533Z,2.67
2023-02-24T22:40:33.314Z,2.65
2023-02-24T22:45:48.356Z,2.50
2023-02-24T22:51:05.651Z,2.25
2023-02-24T22:56:12.959Z,3.13
2023-02-24T23:01:23.487Z,2.15
2023-02-24T23:06:32.107Z,3.00
2023-02-24T23:11:43.058Z,2.60
2023-02-24T23:16:54.446Z,4.20
2023-02-24T23:22:02.930Z,5.13
2023-02-24T23:27:13.345Z,4.28
2023-02-24T23:32:35.427Z,4.53
2023-02-24T23:37:41.878Z,5.22
2023-02-24T23:47:57.970Z,4.57
2023-02-24T23:53:04.694Z,3.63
2023-02-24T23:58:15.965Z,4.32
